Time;durP1;ratioP1;P1;durP2;ratioP2;P2;SDS_P1;SDS_P2;PMS_P1;PMS_P2;Temp;Humidity;BMP_temperature;BMP_pressure;BME280_temperature;BME280_humidity;BME280_pressure;Samples;Min_cycle;Max_cycle;Signal;HPM_P1;HPM_P2
2021/12/15 00:00:05;;;;;;;57.80;15.93;;;;;;;;;;4837090;29;20041;-85
2021/12/15 00:02:31;;;;;;;71.57;19.65;;;;;;;;;;4852126;29;20045;-86
2021/12/15 00:04:58;;;;;;;60.65;19.17;;;;;;;;;;4840288;29;20090;-86
2021/12/15 00:07:26;;;;;;;59.72;20.58;;;;;;;;;;4853261;29;20041;-85
2021/12/15 00:09:52;;;;;;;52.65;18.95;;;;;;;;;;4831719;29;20033;-85
2021/12/15 00:12:18;;;;;;;69.38;21.55;;;;;;;;;;4834259;29;20030;-85
2021/12/15 00:14:45;;;;;;;48.05;15.63;;;;;;;;;;4848931;29;20790;-85
2021/12/15 00:17:11;;;;;;;68.20;19.38;;;;;;;;;;4851792;29;20040;-84
2021/12/15 00:19:37;;;;;;;62.47;18.35;;;;;;;;;;4835396;29;20711;-85
2021/12/15 00:22:04;;;;;;;77.32;24.85;;;;;;;;;;4834857;29;20037;-85
2021/12/15 00:24:30;;;;;;;68.68;21.85;;;;;;;;;;4837632;29;20033;-86
2021/12/15 00:26:56;;;;;;;72.07;21.83;;;;;;;;;;4833883;29;20120;-85
2021/12/15 00:29:24;;;;;;;58.50;20.35;;;;;;;;;;4849456;29;20413;-84
2021/12/15 00:31:50;;;;;;;54.80;19.73;;;;;;;;;;4835779;29;20557;-85
2021/12/15 00:34:17;;;;;;;68.18;20.20;;;;;;;;;;4832538;29;20037;-84
2021/12/15 00:36:47;;;;;;;71.85;23.00;;;;;;;;;;4866533;29;20413;-85
2021/12/15 00:39:14;;;;;;;55.17;16.10;;;;;;;;;;4855484;29;20546;-85
2021/12/15 00:41:41;;;;;;;51.33;18.65;;;;;;;;;;4853059;29;20040;-85
2021/12/15 00:44:07;;;;;;;79.03;22.45;;;;;;;;;;4870624;29;20446;-85
2021/12/15 00:46:34;;;;;;;66.40;19.38;;;;;;;;;;4853194;29;20030;-85
2021/12/15 00:49:00;;;;;;;54.58;17.73;;;;;;;;;;4852584;29;20084;-85
2021/12/15 00:51:26;;;;;;;58.22;19.42;;;;;;;;;;4855424;29;20068;-85
2021/12/15 00:53:53;;;;;;;61.65;20.15;;;;;;;;;;4850631;29;20125;-84
2021/12/15 00:56:19;;;;;;;56.17;20.58;;;;;;;;;;4858294;29;20257;-85
2021/12/15 00:58:45;;;;;;;63.50;20.92;;;;;;;;;;4868142;29;20041;-86
2021/12/15 01:01:11;;;;;;;63.20;18.50;;;;;;;;;;4852575;29;20541;-85
2021/12/15 01:03:37;;;;;;;59.70;19.55;;;;;;;;;;4853513;29;20039;-84
2021/12/15 01:06:09;;;;;;;38.13;9.98;;;;;;;;;;4855740;29;20082;-86
2021/12/15 01:08:39;;;;;;;42.08;16.67;;;;;;;;;;4852510;29;20401;-85
2021/12/15 01:11:20;;;;;;;56.17;19.73;;;;;;;;;;4868644;29;20548;-85
2021/12/15 01:22:05;;;;;;;56.50;17.55;;;;;;;;;;4871251;29;19922;-84
2021/12/15 01:24:31;;;;;;;38.60;14.40;;;;;;;;;;4849964;29;20043;-85
2021/12/15 01:26:57;;;;;;;63.42;18.38;;;;;;;;;;4869778;29;20045;-85
2021/12/15 01:29:23;;;;;;;55.83;19.65;;;;;;;;;;4872708;29;20393;-84
2021/12/15 01:31:49;;;;;;;60.80;19.35;;;;;;;;;;4851651;29;20029;-85
2021/12/15 01:34:16;;;;;;;55.78;18.55;;;;;;;;;;4854050;29;20120;-84
2021/12/15 01:36:42;;;;;;;53.92;18.27;;;;;;;;;;4849557;29;20550;-85
2021/12/15 01:39:08;;;;;;;57.83;20.02;;;;;;;;;;4830538;29;20072;-84
2021/12/15 01:41:34;;;;;;;44.70;14.57;;;;;;;;;;4836706;29;20065;-85
2021/12/15 01:49:19;;;;;;;57.03;20.70;;;;;;;;;;4850477;29;20045;-85
2021/12/15 01:51:45;;;;;;;52.33;18.85;;;;;;;;;;4845257;29;20809;-85
2021/12/15 01:54:12;;;;;;;68.97;22.08;;;;;;;;;;4830255;29;20042;-85
2021/12/15 01:56:38;;;;;;;53.65;18.00;;;;;;;;;;4848676;29;20041;-84
2021/12/15 01:59:05;;;;;;;51.67;19.60;;;;;;;;;;4836233;29;20037;-84
2021/12/15 02:01:31;;;;;;;56.33;21.33;;;;;;;;;;4837860;29;20034;-84
2021/12/15 02:03:57;;;;;;;55.75;15.85;;;;;;;;;;4836603;29;20034;-85
2021/12/15 02:06:24;;;;;;;49.53;18.52;;;;;;;;;;4837545;29;20038;-84
2021/12/15 02:08:50;;;;;;;52.78;20.38;;;;;;;;;;4838532;29;20026;-84
2021/12/15 02:11:17;;;;;;;46.28;16.52;;;;;;;;;;4847661;29;20061;-83
2021/12/15 02:13:43;;;;;;;63.63;20.17;;;;;;;;;;4853379;29;20569;-85
2021/12/15 02:16:09;;;;;;;58.30;20.33;;;;;;;;;;4839228;29;20132;-85
2021/12/15 02:18:41;;;;;;;65.60;20.70;;;;;;;;;;4840128;29;20040;-84
2021/12/15 02:21:09;;;;;;;75.35;22.92;;;;;;;;;;4838759;29;20037;-85
2021/12/15 02:23:40;;;;;;;58.47;17.92;;;;;;;;;;4846964;29;20054;-83
2021/12/15 02:26:14;;;;;;;52.95;17.13;;;;;;;;;;4850142;29;20431;-84
2021/12/15 02:28:40;;;;;;;56.15;22.23;;;;;;;;;;4851612;29;20120;-85
2021/12/15 02:33:48;;;;;;;47.88;17.05;;;;;;;;;;4852126;29;20037;-85
2021/12/15 02:39:20;;;;;;;52.40;20.33;;;;;;;;;;4864061;29;20128;-84
2021/12/15 02:41:46;;;;;;;50.60;19.48;;;;;;;;;;4846302;29;20057;-85
2021/12/15 02:44:14;;;;;;;61.20;21.90;;;;;;;;;;4866182;29;20048;-84
2021/12/15 02:46:41;;;;;;;58.72;23.42;;;;;;;;;;4856543;29;20056;-85
2021/12/15 02:49:08;;;;;;;59.83;20.15;;;;;;;;;;4857950;29;20598;-84
2021/12/15 02:51:35;;;;;;;61.80;21.38;;;;;;;;;;4855413;29;20035;-83
2021/12/15 02:54:01;;;;;;;51.33;19.85;;;;;;;;;;4854520;29;20900;-85
2021/12/15 02:56:28;;;;;;;62.80;21.15;;;;;;;;;;4872729;29;20045;-84
2021/12/15 02:59:02;;;;;;;71.60;24.17;;;;;;;;;;4854997;29;20637;-84
2021/12/15 03:01:37;;;;;;;50.75;18.52;;;;;;;;;;4856351;29;20033;-84
2021/12/15 03:07:11;;;;;;;68.28;23.17;;;;;;;;;;4849062;29;20040;-85
2021/12/15 03:17:43;;;;;;;50.42;18.52;;;;;;;;;;4871392;29;20051;-84
2021/12/15 03:20:10;;;;;;;56.25;21.73;;;;;;;;;;4859091;29;20029;-85
2021/12/15 03:22:36;;;;;;;49.42;19.25;;;;;;;;;;4866045;29;20113;-84
2021/12/15 03:25:04;;;;;;;59.25;20.50;;;;;;;;;;4854223;29;20037;-84
2021/12/15 03:33:34;;;;;;;61.80;19.33;;;;;;;;;;4868968;29;20051;-84
2021/12/15 03:36:08;;;;;;;50.20;19.27;;;;;;;;;;4855066;29;21380;-85
2021/12/15 03:38:35;;;;;;;56.83;23.30;;;;;;;;;;4870684;29;20052;-86
2021/12/15 03:41:01;;;;;;;58.72;20.92;;;;;;;;;;4870489;29;20152;-84
2021/12/15 03:43:28;;;;;;;56.10;23.50;;;;;;;;;;4854986;29;20197;-86
2021/12/15 03:45:59;;;;;;;71.93;25.45;;;;;;;;;;4854898;29;20040;-86
2021/12/15 03:48:28;;;;;;;56.85;23.90;;;;;;;;;;4868160;29;20041;-86
2021/12/15 03:50:56;;;;;;;46.67;21.13;;;;;;;;;;4855175;29;20029;-84
2021/12/15 03:53:23;;;;;;;67.05;24.90;;;;;;;;;;4867663;29;20025;-85
2021/12/15 03:55:49;;;;;;;58.15;23.23;;;;;;;;;;4854684;29;20037;-84
2021/12/15 03:58:16;;;;;;;62.05;24.30;;;;;;;;;;4853763;29;20083;-85
2021/12/15 04:00:45;;;;;;;50.22;20.55;;;;;;;;;;4869466;29;20037;-84
2021/12/15 04:03:19;;;;;;;62.50;22.90;;;;;;;;;;4863405;29;20033;-85
2021/12/15 04:05:45;;;;;;;60.97;22.25;;;;;;;;;;4850451;29;20029;-85
2021/12/15 04:08:11;;;;;;;68.55;24.13;;;;;;;;;;4855823;29;20033;-85
2021/12/15 04:10:37;;;;;;;45.40;17.02;;;;;;;;;;4855262;29;20036;-84
2021/12/15 04:13:03;;;;;;;58.22;24.17;;;;;;;;;;4849549;29;20037;-84
2021/12/15 04:15:40;;;;;;;56.95;21.48;;;;;;;;;;4858163;29;20157;-86
2021/12/15 04:18:06;;;;;;;60.08;20.65;;;;;;;;;;4868062;29;20096;-85
2021/12/15 04:20:33;;;;;;;49.25;17.80;;;;;;;;;;4855452;29;20075;-85
2021/12/15 04:23:00;;;;;;;50.97;18.48;;;;;;;;;;4851608;29;20033;-85
2021/12/15 04:25:27;;;;;;;56.15;22.33;;;;;;;;;;4857784;29;20029;-86
2021/12/15 04:27:56;;;;;;;39.83;15.52;;;;;;;;;;4856353;29;20021;-85
2021/12/15 04:30:23;;;;;;;71.40;24.13;;;;;;;;;;4855949;29;20033;-86
2021/12/15 04:32:50;;;;;;;61.17;23.77;;;;;;;;;;4853198;29;20041;-86
2021/12/15 04:35:17;;;;;;;56.88;20.02;;;;;;;;;;4869347;29;21420;-86
2021/12/15 04:37:43;;;;;;;62.63;22.38;;;;;;;;;;4868991;29;20501;-85
2021/12/15 04:40:11;;;;;;;39.88;17.05;;;;;;;;;;4855533;29;20037;-85
2021/12/15 04:42:38;;;;;;;47.30;20.15;;;;;;;;;;4856422;29;20128;-85
2021/12/15 04:45:06;;;;;;;62.58;21.30;;;;;;;;;;4863693;29;20056;-85
2021/12/15 04:47:32;;;;;;;58.95;22.25;;;;;;;;;;4865898;29;20458;-86
2021/12/15 04:49:58;;;;;;;63.40;25.60;;;;;;;;;;4865044;29;20036;-85
2021/12/15 04:52:32;;;;;;;59.53;21.60;;;;;;;;;;4869772;29;20037;-86
2021/12/15 04:54:59;;;;;;;54.00;20.60;;;;;;;;;;4854419;29;20461;-85
2021/12/15 04:57:25;;;;;;;56.22;20.48;;;;;;;;;;4867297;29;20112;-86
2021/12/15 04:59:52;;;;;;;49.92;18.83;;;;;;;;;;4854616;29;20037;-86
2021/12/15 05:02:18;;;;;;;63.92;23.05;;;;;;;;;;4851571;29;20080;-86
2021/12/15 05:04:45;;;;;;;54.78;22.40;;;;;;;;;;4865647;29;20557;-86
2021/12/15 05:07:11;;;;;;;51.38;21.08;;;;;;;;;;4869095;29;20760;-86
2021/12/15 05:09:38;;;;;;;44.25;17.45;;;;;;;;;;4867619;29;20128;-84
2021/12/15 05:12:04;;;;;;;50.88;19.85;;;;;;;;;;4866870;29;20040;-85
2021/12/15 05:14:30;;;;;;;49.80;19.85;;;;;;;;;;4868204;29;20021;-86
2021/12/15 05:16:57;;;;;;;54.00;20.80;;;;;;;;;;4854115;29;20079;-84
2021/12/15 05:19:25;;;;;;;65.18;25.05;;;;;;;;;;4853148;29;20044;-86
2021/12/15 05:21:52;;;;;;;49.25;17.73;;;;;;;;;;4850799;29;20025;-84
2021/12/15 05:24:30;;;;;;;63.72;21.75;;;;;;;;;;4852683;29;20048;-86
2021/12/15 05:27:02;;;;;;;53.78;19.48;;;;;;;;;;4848869;29;20033;-86
2021/12/15 05:29:29;;;;;;;60.63;21.70;;;;;;;;;;4853379;29;20123;-84
2021/12/15 05:31:55;;;;;;;50.92;17.88;;;;;;;;;;4851116;29;20086;-85
2021/12/15 05:34:22;;;;;;;53.17;18.05;;;;;;;;;;4867255;29;20520;-86
2021/12/15 05:36:50;;;;;;;58.47;21.13;;;;;;;;;;4855670;29;20595;-84
2021/12/15 05:39:17;;;;;;;57.50;22.90;;;;;;;;;;4850713;29;20152;-85
2021/12/15 05:41:43;;;;;;;72.75;23.27;;;;;;;;;;4854199;29;20055;-84
2021/12/15 05:44:09;;;;;;;65.32;24.30;;;;;;;;;;4851845;29;20030;-85
2021/12/15 05:46:35;;;;;;;65.13;23.42;;;;;;;;;;4852403;29;20029;-85
2021/12/15 05:49:01;;;;;;;57.53;22.15;;;;;;;;;;4867047;29;20488;-86
2021/12/15 05:51:27;;;;;;;62.88;19.98;;;;;;;;;;4868409;29;20555;-86
2021/12/15 05:53:53;;;;;;;60.70;21.92;;;;;;;;;;4870341;29;20048;-84
2021/12/15 05:56:19;;;;;;;65.53;21.88;;;;;;;;;;4853727;29;20037;-85
2021/12/15 05:58:46;;;;;;;74.28;24.55;;;;;;;;;;4854518;29;20073;-85
2021/12/15 06:01:12;;;;;;;72.55;23.88;;;;;;;;;;4854260;29;20040;-85
2021/12/15 06:03:39;;;;;;;55.80;21.50;;;;;;;;;;4870829;29;20025;-84
2021/12/15 06:06:05;;;;;;;56.28;19.63;;;;;;;;;;4852693;29;20598;-86
2021/12/15 06:08:31;;;;;;;66.32;24.23;;;;;;;;;;4852804;29;20043;-86
2021/12/15 06:10:57;;;;;;;39.50;15.55;;;;;;;;;;4865104;29;20116;-85
2021/12/15 06:13:26;;;;;;;53.78;20.92;;;;;;;;;;4870395;29;20044;-86
2021/12/15 06:15:52;;;;;;;72.03;21.25;;;;;;;;;;4866545;29;20033;-84
2021/12/15 06:18:19;;;;;;;54.78;18.50;;;;;;;;;;4853334;29;20040;-85
2021/12/15 06:20:47;;;;;;;59.28;21.17;;;;;;;;;;4851456;29;20029;-86
2021/12/15 06:23:18;;;;;;;63.13;23.50;;;;;;;;;;4850825;29;20532;-86
2021/12/15 06:25:46;;;;;;;55.88;20.98;;;;;;;;;;4851578;29;20505;-85
2021/12/15 06:28:12;;;;;;;54.22;20.88;;;;;;;;;;4851535;29;20025;-86
2021/12/15 06:30:39;;;;;;;60.65;21.23;;;;;;;;;;4853034;29;20084;-85
2021/12/15 06:33:06;;;;;;;61.20;23.00;;;;;;;;;;4871886;29;20516;-85
2021/12/15 06:35:32;;;;;;;68.57;22.27;;;;;;;;;;4854507;29;20048;-85
2021/12/15 06:37:58;;;;;;;62.72;23.13;;;;;;;;;;4868477;29;20036;-84
2021/12/15 06:40:24;;;;;;;37.00;12.25;;;;;;;;;;4868282;29;20040;-86
2021/12/15 06:42:51;;;;;;;58.35;21.17;;;;;;;;;;4873634;29;20041;-84
2021/12/15 06:45:21;;;;;;;62.47;19.05;;;;;;;;;;4867373;29;20033;-86
2021/12/15 06:58:30;;;;;;;54.58;18.67;;;;;;;;;;4872569;29;20458;-85
2021/12/15 07:00:57;;;;;;;65.72;22.30;;;;;;;;;;4860676;29;20099;-86
2021/12/15 07:03:23;;;;;;;63.38;19.80;;;;;;;;;;4855615;29;20038;-85
2021/12/15 07:05:50;;;;;;;50.40;19.63;;;;;;;;;;4871978;29;20634;-85
2021/12/15 07:08:17;;;;;;;57.42;19.90;;;;;;;;;;4868554;29;20025;-84
2021/12/15 07:10:45;;;;;;;69.60;21.17;;;;;;;;;;4854446;29;20029;-84
2021/12/15 07:13:13;;;;;;;55.72;20.70;;;;;;;;;;4858641;29;20405;-85
2021/12/15 07:15:39;;;;;;;55.45;19.73;;;;;;;;;;4854617;29;20079;-84
2021/12/15 07:18:09;;;;;;;61.97;22.17;;;;;;;;;;4854782;29;20033;-86
2021/12/15 07:23:05;;;;;;;60.03;21.90;;;;;;;;;;4869481;29;20136;-86
2021/12/15 07:25:32;;;;;;;58.83;20.00;;;;;;;;;;4869419;29;20517;-86
2021/12/15 07:27:58;;;;;;;56.53;19.77;;;;;;;;;;4871494;29;20032;-85
2021/12/15 07:30:25;;;;;;;57.75;20.40;;;;;;;;;;4855235;29;20557;-84
2021/12/15 07:32:51;;;;;;;41.42;18.88;;;;;;;;;;4869719;29;20144;-84
2021/12/15 07:35:18;;;;;;;42.17;15.75;;;;;;;;;;4855963;29;20036;-86
2021/12/15 07:37:44;;;;;;;50.55;18.67;;;;;;;;;;4842711;29;20872;-86
2021/12/15 07:40:19;;;;;;;53.80;18.65;;;;;;;;;;4837105;29;20033;-86
2021/12/15 07:43:06;;;;;;;52.80;18.45;;;;;;;;;;4846080;29;20045;-86
2021/12/15 07:45:33;;;;;;;52.40;19.08;;;;;;;;;;4835941;29;20040;-85
2021/12/15 07:48:01;;;;;;;56.05;17.73;;;;;;;;;;4835313;29;20038;-86
2021/12/15 07:50:27;;;;;;;48.80;17.63;;;;;;;;;;4854521;29;20434;-85
2021/12/15 07:52:53;;;;;;;54.88;19.35;;;;;;;;;;4847251;29;20041;-86
2021/12/15 07:55:20;;;;;;;34.47;13.57;;;;;;;;;;4848268;29;20181;-85
2021/12/15 07:57:46;;;;;;;50.50;18.48;;;;;;;;;;4849018;29;20068;-86
2021/12/15 08:00:13;;;;;;;53.17;16.65;;;;;;;;;;4848756;29;20041;-85
2021/12/15 08:02:40;;;;;;;48.05;16.85;;;;;;;;;;4849124;29;20048;-84
2021/12/15 08:05:06;;;;;;;43.67;16.15;;;;;;;;;;4837056;29;20056;-85
2021/12/15 08:07:32;;;;;;;41.38;16.25;;;;;;;;;;4847035;29;20062;-85
2021/12/15 08:10:06;;;;;;;48.95;17.05;;;;;;;;;;4833085;29;20834;-85
2021/12/15 08:12:32;;;;;;;39.05;12.07;;;;;;;;;;4843699;29;20034;-85
2021/12/15 08:14:58;;;;;;;42.85;16.67;;;;;;;;;;4833137;29;20323;-85
2021/12/15 08:17:24;;;;;;;44.78;17.65;;;;;;;;;;4849925;29;20037;-84
2021/12/15 08:19:50;;;;;;;35.10;12.52;;;;;;;;;;4832578;29;20038;-86
2021/12/15 08:22:17;;;;;;;40.40;15.55;;;;;;;;;;4830406;29;20089;-85
2021/12/15 08:24:43;;;;;;;34.30;13.45;;;;;;;;;;4834682;29;20088;-84
2021/12/15 08:27:09;;;;;;;33.53;13.02;;;;;;;;;;4846660;29;20057;-85
2021/12/15 08:29:35;;;;;;;39.85;14.13;;;;;;;;;;4830720;29;20044;-85
2021/12/15 08:32:01;;;;;;;40.63;13.20;;;;;;;;;;4835128;29;20721;-85
2021/12/15 08:34:34;;;;;;;30.42;12.90;;;;;;;;;;4832004;29;20584;-86
2021/12/15 08:37:00;;;;;;;20.38;7.50;;;;;;;;;;4863204;29;20116;-84
2021/12/15 08:39:26;;;;;;;25.90;10.98;;;;;;;;;;4866140;29;20063;-85
2021/12/15 08:41:52;;;;;;;32.63;11.65;;;;;;;;;;4847044;29;20045;-84
2021/12/15 08:44:19;;;;;;;27.45;10.88;;;;;;;;;;4847560;29;20037;-86
2021/12/15 08:46:46;;;;;;;23.65;9.50;;;;;;;;;;4864520;29;20607;-84
2021/12/15 08:49:16;;;;;;;37.47;11.07;;;;;;;;;;4868489;29;23350;-86
2021/12/15 08:51:42;;;;;;;30.95;10.48;;;;;;;;;;4853145;29;20528;-85
2021/12/15 08:54:11;;;;;;;35.47;11.38;;;;;;;;;;4865700;29;20437;-84
2021/12/15 08:56:37;;;;;;;31.80;11.35;;;;;;;;;;4850860;29;20120;-85
2021/12/15 08:59:05;;;;;;;27.48;7.57;;;;;;;;;;4865364;29;20049;-85
2021/12/15 09:01:31;;;;;;;25.40;7.13;;;;;;;;;;4853005;29;20092;-86
2021/12/15 09:03:57;;;;;;;34.42;12.63;;;;;;;;;;4862815;29;20502;-84
2021/12/15 09:06:24;;;;;;;41.47;13.20;;;;;;;;;;4845565;29;20065;-86
2021/12/15 09:08:50;;;;;;;32.10;13.15;;;;;;;;;;4866222;29;20436;-84
2021/12/15 09:11:20;;;;;;;35.05;11.80;;;;;;;;;;4865256;29;20036;-86
2021/12/15 09:13:47;;;;;;;26.02;12.05;;;;;;;;;;4870730;29;20052;-85
2021/12/15 09:16:13;;;;;;;33.75;12.48;;;;;;;;;;4852875;29;20524;-85
2021/12/15 09:18:42;;;;;;;36.58;10.00;;;;;;;;;;4870070;29;20025;-85
2021/12/15 09:21:09;;;;;;;29.40;10.65;;;;;;;;;;4868412;29;20062;-85
2021/12/15 09:23:35;;;;;;;39.08;11.27;;;;;;;;;;4852582;29;20028;-85
2021/12/15 09:26:02;;;;;;;32.15;9.38;;;;;;;;;;4864837;29;20089;-86
2021/12/15 09:28:30;;;;;;;34.30;11.00;;;;;;;;;;4847932;29;20064;-86
2021/12/15 09:30:56;;;;;;;32.13;12.07;;;;;;;;;;4852159;29;20090;-85
2021/12/15 09:33:28;;;;;;;27.10;11.77;;;;;;;;;;4847726;29;20096;-86
2021/12/15 09:35:54;;;;;;;27.00;10.90;;;;;;;;;;4851933;29;20072;-85
2021/12/15 09:38:21;;;;;;;33.85;12.43;;;;;;;;;;4851555;29;20089;-86
2021/12/15 09:40:49;;;;;;;28.92;10.15;;;;;;;;;;4852937;29;20034;-86
2021/12/15 09:43:15;;;;;;;23.98;9.95;;;;;;;;;;4852990;29;20034;-86
2021/12/15 10:04:31;;;;;;;28.08;9.88;;;;;;;;;;4869506;29;20045;-85
2021/12/15 10:17:47;;;;;;;26.40;8.57;;;;;;;;;;4872321;29;20496;-85
2021/12/15 10:20:16;;;;;;;22.27;8.45;;;;;;;;;;4874923;29;20029;-84
2021/12/15 10:22:45;;;;;;;24.08;9.00;;;;;;;;;;4858486;29;20037;-84
2021/12/15 10:25:20;;;;;;;31.13;9.65;;;;;;;;;;4858696;29;20029;-84
2021/12/15 10:28:04;;;;;;;14.55;4.75;;;;;;;;;;4870836;29;20185;-86
2021/12/15 10:30:39;;;;;;;19.10;8.93;;;;;;;;;;4853356;29;20030;-86
2021/12/15 10:33:08;;;;;;;26.13;9.60;;;;;;;;;;4870937;29;20040;-85
2021/12/15 10:35:45;;;;;;;26.38;9.40;;;;;;;;;;4857493;29;20074;-84
2021/12/15 10:38:11;;;;;;;16.83;7.03;;;;;;;;;;4853427;29;20052;-86
2021/12/15 10:40:45;;;;;;;23.52;9.30;;;;;;;;;;4859341;29;20048;-85
2021/12/15 10:43:11;;;;;;;19.55;8.20;;;;;;;;;;4870986;29;20490;-85
2021/12/15 10:45:40;;;;;;;26.17;9.48;;;;;;;;;;4851543;29;20066;-86
2021/12/15 10:48:14;;;;;;;24.38;9.15;;;;;;;;;;4870840;29;20120;-84
2021/12/15 10:50:40;;;;;;;29.35;10.07;;;;;;;;;;4855087;29;20030;-85
2021/12/15 10:53:07;;;;;;;21.63;9.55;;;;;;;;;;4869709;29;20062;-86
2021/12/15 10:55:37;;;;;;;18.92;8.70;;;;;;;;;;4869829;29;20109;-87
2021/12/15 10:58:23;;;;;;;31.17;8.77;;;;;;;;;;4871711;29;20045;-85
2021/12/15 11:00:49;;;;;;;20.20;9.38;;;;;;;;;;4842996;29;20048;-84
2021/12/15 11:03:23;;;;;;;20.27;8.95;;;;;;;;;;4870911;29;20041;-84
2021/12/15 11:05:49;;;;;;;23.95;8.00;;;;;;;;;;4855298;29;21835;-86
2021/12/15 11:08:20;;;;;;;20.63;8.30;;;;;;;;;;4853114;29;21530;-84
2021/12/15 11:10:46;;;;;;;24.75;9.80;;;;;;;;;;4871948;29;20029;-86
2021/12/15 11:13:13;;;;;;;25.88;8.35;;;;;;;;;;4852882;29;20041;-85
2021/12/15 11:15:41;;;;;;;23.65;8.02;;;;;;;;;;4870791;29;20116;-86
2021/12/15 11:18:18;;;;;;;29.15;9.90;;;;;;;;;;4859464;29;20037;-86
2021/12/15 11:20:47;;;;;;;18.00;6.40;;;;;;;;;;4856267;29;20366;-86
2021/12/15 11:23:14;;;;;;;24.13;8.32;;;;;;;;;;4854368;29;20040;-86
2021/12/15 11:25:40;;;;;;;21.80;9.15;;;;;;;;;;4870681;29;20093;-85
2021/12/15 11:28:16;;;;;;;18.95;8.35;;;;;;;;;;4852649;29;20021;-86
2021/12/15 11:30:54;;;;;;;21.23;8.27;;;;;;;;;;4856523;29;20127;-86
2021/12/15 11:33:22;;;;;;;26.45;8.63;;;;;;;;;;4854470;29;20047;-84
2021/12/15 11:35:54;;;;;;;15.52;7.60;;;;;;;;;;4872675;29;20044;-86
2021/12/15 11:38:35;;;;;;;23.38;8.43;;;;;;;;;;4837840;29;20106;-84
2021/12/15 11:41:01;;;;;;;14.75;7.32;;;;;;;;;;4840670;29;20071;-85
2021/12/15 11:43:27;;;;;;;17.83;7.68;;;;;;;;;;4852891;29;20052;-86
2021/12/15 11:45:53;;;;;;;21.35;6.43;;;;;;;;;;4834862;29;20129;-86
2021/12/15 11:48:24;;;;;;;20.77;7.28;;;;;;;;;;4849068;29;20029;-85
2021/12/15 11:50:51;;;;;;;11.45;6.13;;;;;;;;;;4845320;29;20566;-86
2021/12/15 11:53:23;;;;;;;22.30;6.97;;;;;;;;;;4852915;29;20085;-86
2021/12/15 11:55:49;;;;;;;11.60;5.55;;;;;;;;;;4831970;29;20497;-86
2021/12/15 11:58:15;;;;;;;15.60;6.32;;;;;;;;;;4835807;29;20057;-85
2021/12/15 12:00:41;;;;;;;10.73;4.53;;;;;;;;;;4834913;29;20037;-86
2021/12/15 12:03:07;;;;;;;9.70;2.85;;;;;;;;;;4849217;29;20029;-86
2021/12/15 12:05:37;;;;;;;11.48;3.40;;;;;;;;;;4835743;29;20517;-85
2021/12/15 12:08:07;;;;;;;11.20;4.05;;;;;;;;;;4851941;29;20130;-85
2021/12/15 12:10:42;;;;;;;11.10;3.53;;;;;;;;;;4851748;29;20394;-84
2021/12/15 12:13:13;;;;;;;21.85;4.93;;;;;;;;;;4849391;29;20036;-84
2021/12/15 12:15:42;;;;;;;10.45;3.10;;;;;;;;;;4848376;29;20065;-85
2021/12/15 12:18:10;;;;;;;17.17;3.38;;;;;;;;;;4835221;29;20043;-86
2021/12/15 12:20:38;;;;;;;12.13;3.65;;;;;;;;;;4839848;29;20493;-85
2021/12/15 12:23:06;;;;;;;19.38;3.92;;;;;;;;;;4849382;29;20032;-84
2021/12/15 12:25:36;;;;;;;8.77;3.50;;;;;;;;;;4836742;29;20062;-85
2021/12/15 12:28:03;;;;;;;14.02;3.90;;;;;;;;;;4848314;29;20029;-84
2021/12/15 12:30:32;;;;;;;8.65;3.63;;;;;;;;;;4849502;29;20470;-86
2021/12/15 12:32:59;;;;;;;10.82;4.20;;;;;;;;;;4835771;29;20439;-86
2021/12/15 12:35:34;;;;;;;7.70;3.20;;;;;;;;;;4852308;29;20515;-85
2021/12/15 12:38:21;;;;;;;13.88;3.88;;;;;;;;;;4869351;29;20053;-85
2021/12/15 12:41:07;;;;;;;9.55;3.35;;;;;;;;;;4850743;29;20041;-86
2021/12/15 12:43:36;;;;;;;11.35;3.20;;;;;;;;;;4868653;29;20052;-85
2021/12/15 12:46:09;;;;;;;7.22;2.47;;;;;;;;;;4868725;29;20482;-85
2021/12/15 12:59:23;;;;;;;;;;;;;;;;;;4872069;29;20625;-84
2021/12/15 13:01:49;;;;;;;7.47;2.72;;;;;;;;;;4853859;29;19923;-84
2021/12/15 13:04:15;;;;;;;5.57;3.00;;;;;;;;;;4858180;29;20128;-86
2021/12/15 13:06:42;;;;;;;6.45;3.20;;;;;;;;;;4853107;29;20036;-86
2021/12/15 13:09:16;;;;;;;10.73;3.20;;;;;;;;;;4870378;29;20108;-85
2021/12/15 13:11:43;;;;;;;7.47;2.80;;;;;;;;;;4858274;29;20041;-84
2021/12/15 13:14:28;;;;;;;8.73;3.17;;;;;;;;;;4850941;29;20697;-86
2021/12/15 13:16:56;;;;;;;8.50;2.58;;;;;;;;;;4865481;29;20172;-86
2021/12/15 13:19:24;;;;;;;9.27;2.13;;;;;;;;;;4861737;29;20045;-86
2021/12/15 13:22:03;;;;;;;7.00;2.28;;;;;;;;;;4852406;29;20037;-86
2021/12/15 13:30:38;;;;;;;5.03;1.40;;;;;;;;;;4870572;29;20341;-86
2021/12/15 13:33:11;;;;;;;6.38;2.70;;;;;;;;;;4867345;29;20076;-85
2021/12/15 13:35:45;;;;;;;6.07;1.65;;;;;;;;;;4868087;29;20497;-86
2021/12/15 13:38:19;;;;;;;3.13;1.48;;;;;;;;;;4874573;29;20132;-85
2021/12/15 13:40:54;;;;;;;5.35;1.73;;;;;;;;;;4854527;29;20044;-86
2021/12/15 13:43:41;;;;;;;10.20;2.00;;;;;;;;;;4871148;29;20037;-86
2021/12/15 13:46:22;;;;;;;5.65;1.92;;;;;;;;;;4871064;29;20041;-86
2021/12/15 13:49:00;;;;;;;7.43;1.83;;;;;;;;;;4856451;29;20443;-85
2021/12/15 13:51:45;;;;;;;6.35;2.03;;;;;;;;;;4854871;29;20057;-85
2021/12/15 13:54:25;;;;;;;11.38;1.98;;;;;;;;;;4854185;29;20033;-86
2021/12/15 13:56:53;;;;;;;5.40;2.03;;;;;;;;;;4871839;29;20029;-86
2021/12/15 13:59:32;;;;;;;4.47;1.63;;;;;;;;;;4870954;29;20029;-86
2021/12/15 14:02:10;;;;;;;5.10;1.15;;;;;;;;;;4860146;29;20123;-86
2021/12/15 14:04:40;;;;;;;4.20;2.00;;;;;;;;;;4850462;29;20029;-85
2021/12/15 14:07:25;;;;;;;4.13;1.38;;;;;;;;;;4856782;29;20131;-84
2021/12/15 14:09:51;;;;;;;4.28;1.42;;;;;;;;;;4875467;29;20093;-85
2021/12/15 14:12:37;;;;;;;3.75;1.70;;;;;;;;;;4855199;29;20044;-84
2021/12/15 14:15:04;;;;;;;8.63;1.63;;;;;;;;;;4856120;29;20101;-84
2021/12/15 14:17:30;;;;;;;5.13;1.50;;;;;;;;;;4858394;29;20037;-86
2021/12/15 14:19:56;;;;;;;6.32;2.00;;;;;;;;;;4870959;29;20537;-85
2021/12/15 14:22:28;;;;;;;6.50;1.40;;;;;;;;;;4869792;29;20037;-86
2021/12/15 14:25:00;;;;;;;4.35;1.65;;;;;;;;;;4847930;29;22051;-86
2021/12/15 14:27:26;;;;;;;3.97;1.70;;;;;;;;;;4872051;29;20037;-84
2021/12/15 14:29:52;;;;;;;7.68;1.92;;;;;;;;;;4868638;29;20858;-85
2021/12/15 14:32:18;;;;;;;15.88;2.28;;;;;;;;;;4869867;29;20037;-84
2021/12/15 14:34:46;;;;;;;8.20;2.10;;;;;;;;;;4860523;29;20047;-86
2021/12/15 14:37:13;;;;;;;8.07;2.08;;;;;;;;;;4856274;29;20037;-86
2021/12/15 14:39:41;;;;;;;4.68;2.03;;;;;;;;;;4838831;29;20050;-86
2021/12/15 14:42:10;;;;;;;5.80;1.65;;;;;;;;;;4837076;29;23414;-85
2021/12/15 14:44:44;;;;;;;5.32;2.17;;;;;;;;;;4838179;29;20030;-85
2021/12/15 14:47:12;;;;;;;6.95;2.10;;;;;;;;;;4847382;29;20110;-85
2021/12/15 14:49:40;;;;;;;2.70;1.17;;;;;;;;;;4850663;29;20693;-85
2021/12/15 14:52:09;;;;;;;4.55;2.22;;;;;;;;;;4835648;29;20420;-86
2021/12/15 14:54:36;;;;;;;9.05;2.33;;;;;;;;;;4850709;29;20025;-86
2021/12/15 14:57:12;;;;;;;6.68;1.90;;;;;;;;;;4847539;29;20542;-85
2021/12/15 14:59:44;;;;;;;7.50;2.05;;;;;;;;;;4851900;29;20035;-85
2021/12/15 15:02:12;;;;;;;12.20;2.28;;;;;;;;;;4848391;29;20040;-84
2021/12/15 15:04:39;;;;;;;7.90;2.47;;;;;;;;;;4835775;29;20057;-86
2021/12/15 15:07:08;;;;;;;3.83;2.03;;;;;;;;;;4850087;29;20036;-84
2021/12/15 15:09:45;;;;;;;6.55;2.05;;;;;;;;;;4835042;29;20032;-86
2021/12/15 15:12:13;;;;;;;11.10;2.47;;;;;;;;;;4836738;29;20045;-85
2021/12/15 15:14:51;;;;;;;8.77;2.08;;;;;;;;;;4835251;29;20030;-85
2021/12/15 15:17:24;;;;;;;6.75;2.60;;;;;;;;;;4835248;29;20037;-86
2021/12/15 15:19:52;;;;;;;6.72;2.20;;;;;;;;;;4848925;29;20491;-84
2021/12/15 15:22:21;;;;;;;4.25;1.70;;;;;;;;;;4849790;29;20033;-85
2021/12/15 15:24:47;;;;;;;5.72;2.45;;;;;;;;;;4849247;29;20026;-86
2021/12/15 15:27:15;;;;;;;8.30;1.95;;;;;;;;;;4852923;29;20026;-86
2021/12/15 15:29:43;;;;;;;3.67;1.15;;;;;;;;;;4850805;29;20053;-85
2021/12/15 15:32:11;;;;;;;7.40;2.20;;;;;;;;;;4837439;29;20079;-85
2021/12/15 15:34:37;;;;;;;5.28;1.52;;;;;;;;;;4830953;29;20046;-84
2021/12/15 15:37:15;;;;;;;4.47;1.70;;;;;;;;;;4833632;29;20148;-85
2021/12/15 15:39:41;;;;;;;5.90;1.40;;;;;;;;;;4851781;29;20049;-85
2021/12/15 15:42:07;;;;;;;5.45;1.70;;;;;;;;;;4851718;29;20033;-86
2021/12/15 15:44:35;;;;;;;3.70;1.98;;;;;;;;;;4853510;29;20498;-84
2021/12/15 15:47:01;;;;;;;4.65;1.80;;;;;;;;;;4850705;29;20390;-84
2021/12/15 15:49:27;;;;;;;9.70;2.10;;;;;;;;;;4868018;29;20798;-85
2021/12/15 15:51:53;;;;;;;3.63;1.85;;;;;;;;;;4849639;29;20065;-85
2021/12/15 15:54:21;;;;;;;2.00;1.33;;;;;;;;;;4851549;29;20084;-84
2021/12/15 15:56:51;;;;;;;3.22;1.00;;;;;;;;;;4853015;29;20041;-85
2021/12/15 15:59:18;;;;;;;4.07;1.33;;;;;;;;;;4850542;29;20040;-83
2021/12/15 16:01:48;;;;;;;5.88;1.25;;;;;;;;;;4857322;29;20040;-86
2021/12/15 16:04:15;;;;;;;5.97;1.13;;;;;;;;;;4851728;29;20559;-85
2021/12/15 16:06:42;;;;;;;3.20;1.50;;;;;;;;;;4852104;29;20055;-85
2021/12/15 16:09:12;;;;;;;4.65;1.60;;;;;;;;;;4868936;29;20044;-84